sensor_id;sensor_type;location;lat;lon;timestamp;P1;durP1;ratioP1;P2;durP2;ratioP2
71610;SDS011;59459;51.172;6.682;2022-08-23T00:01:10;9.73;;;3.70;;
71610;SDS011;59459;51.172;6.682;2022-08-23T00:03:36;8.35;;;3.60;;
71610;SDS011;59459;51.172;6.682;2022-08-23T00:06:01;9.53;;;4.07;;
71610;SDS011;59459;51.172;6.682;2022-08-23T00:08:27;8.67;;;4.50;;
71610;SDS011;59459;51.172;6.682;2022-08-23T00:10:53;11.70;;;4.22;;
71610;SDS011;59459;51.172;6.682;2022-08-23T00:13:18;9.47;;;4.20;;
71610;SDS011;59459;51.172;6.682;2022-08-23T00:15:43;9.07;;;3.53;;
71610;SDS011;59459;51.172;6.682;2022-08-23T00:18:08;9.87;;;3.97;;
71610;SDS011;59459;51.172;6.682;2022-08-23T00:20:34;10.30;;;4.30;;
71610;SDS011;59459;51.172;6.682;2022-08-23T00:22:59;11.17;;;3.90;;
71610;SDS011;59459;51.172;6.682;2022-08-23T00:25:24;12.93;;;4.67;;
71610;SDS011;59459;51.172;6.682;2022-08-23T00:27:49;9.80;;;3.70;;
71610;SDS011;59459;51.172;6.682;2022-08-23T00:30:15;11.27;;;4.30;;
71610;SDS011;59459;51.172;6.682;2022-08-23T00:32:40;7.67;;;3.70;;
71610;SDS011;59459;51.172;6.682;2022-08-23T00:35:08;9.10;;;3.87;;
71610;SDS011;59459;51.172;6.682;2022-08-23T00:37:34;8.43;;;3.88;;
71610;SDS011;59459;51.172;6.682;2022-08-23T00:39:59;8.80;;;4.07;;
71610;SDS011;59459;51.172;6.682;2022-08-23T00:45:26;8.70;;;3.92;;
71610;SDS011;59459;51.172;6.682;2022-08-23T00:48:10;9.18;;;4.40;;
71610;SDS011;59459;51.172;6.682;2022-08-23T00:50:45;8.33;;;3.70;;
71610;SDS011;59459;51.172;6.682;2022-08-23T00:53:17;8.57;;;4.13;;
71610;SDS011;59459;51.172;6.682;2022-08-23T00:55:45;9.45;;;4.22;;
71610;SDS011;59459;51.172;6.682;2022-08-23T00:58:11;10.98;;;4.90;;
71610;SDS011;59459;51.172;6.682;2022-08-23T01:00:37;8.60;;;4.60;;
71610;SDS011;59459;51.172;6.682;2022-08-23T01:03:04;9.68;;;4.03;;
71610;SDS011;59459;51.172;6.682;2022-08-23T01:05:32;9.90;;;4.20;;
71610;SDS011;59459;51.172;6.682;2022-08-23T01:08:00;9.65;;;4.25;;
71610;SDS011;59459;51.172;6.682;2022-08-23T01:10:34;8.47;;;4.20;;
71610;SDS011;59459;51.172;6.682;2022-08-23T01:13:08;9.68;;;4.78;;
71610;SDS011;59459;51.172;6.682;2022-08-23T01:15:40;8.85;;;4.40;;
71610;SDS011;59459;51.172;6.682;2022-08-23T01:18:07;9.73;;;4.68;;
71610;SDS011;59459;51.172;6.682;2022-08-23T01:21:36;8.50;;;4.40;;
71610;SDS011;59459;51.172;6.682;2022-08-23T01:23:42;9.37;;;3.87;;
71610;SDS011;59459;51.172;6.682;2022-08-23T01:26:08;8.60;;;4.57;;
71610;SDS011;59459;51.172;6.682;2022-08-23T01:28:34;8.98;;;4.68;;
71610;SDS011;59459;51.172;6.682;2022-08-23T01:30:59;6.73;;;4.20;;
71610;SDS011;59459;51.172;6.682;2022-08-23T01:33:25;7.65;;;4.38;;
71610;SDS011;59459;51.172;6.682;2022-08-23T01:35:51;8.13;;;4.67;;
71610;SDS011;59459;51.172;6.682;2022-08-23T01:38:18;9.38;;;4.80;;
71610;SDS011;59459;51.172;6.682;2022-08-23T01:40:43;9.30;;;4.70;;
71610;SDS011;59459;51.172;6.682;2022-08-23T01:43:09;8.33;;;4.47;;
71610;SDS011;59459;51.172;6.682;2022-08-23T01:45:35;7.30;;;4.78;;
71610;SDS011;59459;51.172;6.682;2022-08-23T01:48:01;11.38;;;4.82;;
71610;SDS011;59459;51.172;6.682;2022-08-23T01:50:26;8.73;;;4.70;;
71610;SDS011;59459;51.172;6.682;2022-08-23T01:52:52;9.68;;;4.50;;
71610;SDS011;59459;51.172;6.682;2022-08-23T01:55:18;8.60;;;4.77;;
71610;SDS011;59459;51.172;6.682;2022-08-23T01:57:44;10.47;;;4.53;;
71610;SDS011;59459;51.172;6.682;2022-08-23T02:00:10;9.90;;;5.00;;
71610;SDS011;59459;51.172;6.682;2022-08-23T02:02:36;11.87;;;5.10;;
71610;SDS011;59459;51.172;6.682;2022-08-23T02:05:02;9.32;;;4.65;;
71610;SDS011;59459;51.172;6.682;2022-08-23T02:07:27;8.80;;;4.90;;
71610;SDS011;59459;51.172;6.682;2022-08-23T02:09:53;6.97;;;4.60;;
71610;SDS011;59459;51.172;6.682;2022-08-23T02:12:18;8.18;;;4.50;;
71610;SDS011;59459;51.172;6.682;2022-08-23T02:14:43;8.13;;;4.50;;
71610;SDS011;59459;51.172;6.682;2022-08-23T02:17:08;10.53;;;5.10;;
71610;SDS011;59459;51.172;6.682;2022-08-23T02:19:34;8.50;;;4.83;;
71610;SDS011;59459;51.172;6.682;2022-08-23T02:22:00;9.10;;;4.47;;
71610;SDS011;59459;51.172;6.682;2022-08-23T02:24:25;9.53;;;4.67;;
71610;SDS011;59459;51.172;6.682;2022-08-23T02:26:53;11.50;;;5.87;;
71610;SDS011;59459;51.172;6.682;2022-08-23T02:29:19;11.10;;;5.35;;
71610;SDS011;59459;51.172;6.682;2022-08-23T02:31:46;10.30;;;4.97;;
71610;SDS011;59459;51.172;6.682;2022-08-23T02:34:12;8.60;;;4.40;;
71610;SDS011;59459;51.172;6.682;2022-08-23T02:36:37;10.40;;;4.97;;
71610;SDS011;59459;51.172;6.682;2022-08-23T02:39:03;8.43;;;4.53;;
71610;SDS011;59459;51.172;6.682;2022-08-23T02:41:29;11.45;;;4.88;;
71610;SDS011;59459;51.172;6.682;2022-08-23T02:43:55;9.77;;;5.25;;
71610;SDS011;59459;51.172;6.682;2022-08-23T02:46:20;9.70;;;4.40;;
71610;SDS011;59459;51.172;6.682;2022-08-23T02:48:47;10.48;;;4.72;;
71610;SDS011;59459;51.172;6.682;2022-08-23T02:51:12;10.43;;;4.63;;
71610;SDS011;59459;51.172;6.682;2022-08-23T02:53:38;10.77;;;4.80;;
71610;SDS011;59459;51.172;6.682;2022-08-23T02:56:03;8.20;;;4.40;;
71610;SDS011;59459;51.172;6.682;2022-08-23T02:58:28;11.93;;;4.97;;
71610;SDS011;59459;51.172;6.682;2022-08-23T03:00:54;10.70;;;5.13;;
71610;SDS011;59459;51.172;6.682;2022-08-23T03:03:19;10.60;;;4.50;;
71610;SDS011;59459;51.172;6.682;2022-08-23T03:05:45;9.55;;;4.68;;
71610;SDS011;59459;51.172;6.682;2022-08-23T03:08:10;10.47;;;5.17;;
71610;SDS011;59459;51.172;6.682;2022-08-23T03:10:36;9.27;;;4.83;;
71610;SDS011;59459;51.172;6.682;2022-08-23T03:13:02;9.68;;;5.25;;
71610;SDS011;59459;51.172;6.682;2022-08-23T03:15:27;12.97;;;5.37;;
71610;SDS011;59459;51.172;6.682;2022-08-23T03:17:53;10.67;;;5.00;;
71610;SDS011;59459;51.172;6.682;2022-08-23T03:20:18;9.10;;;4.87;;
71610;SDS011;59459;51.172;6.682;2022-08-23T03:22:44;7.97;;;4.40;;
71610;SDS011;59459;51.172;6.682;2022-08-23T03:25:09;11.73;;;4.97;;
71610;SDS011;59459;51.172;6.682;2022-08-23T03:27:34;10.43;;;5.47;;
71610;SDS011;59459;51.172;6.682;2022-08-23T03:30:00;11.53;;;5.07;;
71610;SDS011;59459;51.172;6.682;2022-08-23T03:32:25;8.20;;;4.90;;
71610;SDS011;59459;51.172;6.682;2022-08-23T03:34:51;11.33;;;5.33;;
71610;SDS011;59459;51.172;6.682;2022-08-23T03:37:16;11.43;;;5.60;;
71610;SDS011;59459;51.172;6.682;2022-08-23T03:39:42;8.75;;;4.97;;
71610;SDS011;59459;51.172;6.682;2022-08-23T03:42:07;10.93;;;5.33;;
71610;SDS011;59459;51.172;6.682;2022-08-23T03:44:32;12.93;;;5.00;;
71610;SDS011;59459;51.172;6.682;2022-08-23T03:46:58;10.60;;;5.00;;
71610;SDS011;59459;51.172;6.682;2022-08-23T03:49:23;8.17;;;5.00;;
71610;SDS011;59459;51.172;6.682;2022-08-23T03:51:48;9.60;;;5.57;;
71610;SDS011;59459;51.172;6.682;2022-08-23T03:54:13;10.50;;;5.03;;
71610;SDS011;59459;51.172;6.682;2022-08-23T03:56:48;9.77;;;5.43;;
71610;SDS011;59459;51.172;6.682;2022-08-23T03:59:14;10.15;;;4.80;;
71610;SDS011;59459;51.172;6.682;2022-08-23T04:01:39;10.90;;;4.90;;
71610;SDS011;59459;51.172;6.682;2022-08-23T04:04:04;9.13;;;5.20;;
71610;SDS011;59459;51.172;6.682;2022-08-23T04:06:30;8.40;;;4.70;;
71610;SDS011;59459;51.172;6.682;2022-08-23T04:08:57;10.55;;;5.57;;
71610;SDS011;59459;51.172;6.682;2022-08-23T04:11:22;10.70;;;5.27;;
71610;SDS011;59459;51.172;6.682;2022-08-23T04:13:48;10.63;;;5.17;;
71610;SDS011;59459;51.172;6.682;2022-08-23T04:16:13;9.02;;;5.05;;
71610;SDS011;59459;51.172;6.682;2022-08-23T04:18:38;10.47;;;5.53;;
71610;SDS011;59459;51.172;6.682;2022-08-23T04:21:06;11.67;;;5.57;;
71610;SDS011;59459;51.172;6.682;2022-08-23T04:23:34;10.45;;;5.60;;
71610;SDS011;59459;51.172;6.682;2022-08-23T04:25:59;10.60;;;5.90;;
71610;SDS011;59459;51.172;6.682;2022-08-23T04:28:24;10.47;;;5.53;;
71610;SDS011;59459;51.172;6.682;2022-08-23T04:30:50;9.97;;;5.87;;
71610;SDS011;59459;51.172;6.682;2022-08-23T04:33:16;11.30;;;5.50;;
71610;SDS011;59459;51.172;6.682;2022-08-23T04:35:42;12.02;;;6.22;;
71610;SDS011;59459;51.172;6.682;2022-08-23T04:38:07;11.40;;;5.47;;
71610;SDS011;59459;51.172;6.682;2022-08-23T04:40:32;9.77;;;5.67;;
71610;SDS011;59459;51.172;6.682;2022-08-23T04:43:16;10.50;;;5.55;;
71610;SDS011;59459;51.172;6.682;2022-08-23T04:45:42;13.67;;;6.30;;
71610;SDS011;59459;51.172;6.682;2022-08-23T04:48:07;12.27;;;6.20;;
71610;SDS011;59459;51.172;6.682;2022-08-23T04:50:33;13.63;;;5.78;;
71610;SDS011;59459;51.172;6.682;2022-08-23T04:52:59;15.20;;;5.80;;
71610;SDS011;59459;51.172;6.682;2022-08-23T04:55:24;10.70;;;6.13;;
71610;SDS011;59459;51.172;6.682;2022-08-23T04:57:49;12.93;;;6.37;;
71610;SDS011;59459;51.172;6.682;2022-08-23T05:00:15;11.93;;;6.20;;
71610;SDS011;59459;51.172;6.682;2022-08-23T05:02:41;10.52;;;6.22;;
71610;SDS011;59459;51.172;6.682;2022-08-23T05:05:06;13.00;;;6.27;;
71610;SDS011;59459;51.172;6.682;2022-08-23T05:07:32;11.55;;;5.78;;
71610;SDS011;59459;51.172;6.682;2022-08-23T05:09:58;11.67;;;5.63;;
71610;SDS011;59459;51.172;6.682;2022-08-23T05:12:23;13.73;;;6.43;;
71610;SDS011;59459;51.172;6.682;2022-08-23T05:14:48;14.07;;;7.10;;
71610;SDS011;59459;51.172;6.682;2022-08-23T05:17:13;14.37;;;6.53;;
71610;SDS011;59459;51.172;6.682;2022-08-23T05:19:39;16.37;;;6.77;;
71610;SDS011;59459;51.172;6.682;2022-08-23T05:22:04;13.10;;;6.70;;
71610;SDS011;59459;51.172;6.682;2022-08-23T05:24:29;12.57;;;7.10;;
71610;SDS011;59459;51.172;6.682;2022-08-23T05:26:55;14.83;;;7.37;;
71610;SDS011;59459;51.172;6.682;2022-08-23T05:29:20;17.00;;;8.00;;
71610;SDS011;59459;51.172;6.682;2022-08-23T05:31:45;15.23;;;7.80;;
71610;SDS011;59459;51.172;6.682;2022-08-23T05:34:11;12.87;;;8.00;;
71610;SDS011;59459;51.172;6.682;2022-08-23T05:36:36;14.90;;;7.83;;
71610;SDS011;59459;51.172;6.682;2022-08-23T05:39:01;16.43;;;8.67;;
71610;SDS011;59459;51.172;6.682;2022-08-23T05:41:27;13.23;;;7.93;;
71610;SDS011;59459;51.172;6.682;2022-08-23T05:43:52;18.03;;;8.47;;
71610;SDS011;59459;51.172;6.682;2022-08-23T05:46:18;18.10;;;8.43;;
71610;SDS011;59459;51.172;6.682;2022-08-23T05:48:46;15.65;;;8.30;;
71610;SDS011;59459;51.172;6.682;2022-08-23T05:53:37;13.17;;;8.10;;
71610;SDS011;59459;51.172;6.682;2022-08-23T05:56:09;17.40;;;7.93;;
71610;SDS011;59459;51.172;6.682;2022-08-23T05:58:35;17.35;;;8.38;;
71610;SDS011;59459;51.172;6.682;2022-08-23T06:01:00;15.97;;;8.63;;
71610;SDS011;59459;51.172;6.682;2022-08-23T06:03:25;17.03;;;8.13;;
71610;SDS011;59459;51.172;6.682;2022-08-23T06:05:55;17.17;;;8.33;;
71610;SDS011;59459;51.172;6.682;2022-08-23T06:08:20;16.10;;;8.38;;
71610;SDS011;59459;51.172;6.682;2022-08-23T06:10:46;18.03;;;8.40;;
71610;SDS011;59459;51.172;6.682;2022-08-23T06:13:11;17.43;;;8.50;;
71610;SDS011;59459;51.172;6.682;2022-08-23T06:15:41;17.30;;;8.37;;
71610;SDS011;59459;51.172;6.682;2022-08-23T06:18:06;18.33;;;8.23;;
71610;SDS011;59459;51.172;6.682;2022-08-23T06:20:31;16.97;;;8.70;;
71610;SDS011;59459;51.172;6.682;2022-08-23T06:22:56;17.37;;;8.40;;
71610;SDS011;59459;51.172;6.682;2022-08-23T06:25:22;19.33;;;8.83;;
71610;SDS011;59459;51.172;6.682;2022-08-23T06:27:47;16.77;;;8.23;;
71610;SDS011;59459;51.172;6.682;2022-08-23T06:30:12;17.97;;;8.30;;
71610;SDS011;59459;51.172;6.682;2022-08-23T06:32:37;15.70;;;8.30;;
71610;SDS011;59459;51.172;6.682;2022-08-23T06:35:03;14.93;;;7.80;;
71610;SDS011;59459;51.172;6.682;2022-08-23T06:37:28;15.20;;;8.60;;
71610;SDS011;59459;51.172;6.682;2022-08-23T06:39:53;16.73;;;9.13;;
71610;SDS011;59459;51.172;6.682;2022-08-23T06:42:21;16.40;;;8.38;;
71610;SDS011;59459;51.172;6.682;2022-08-23T06:44:48;14.90;;;8.57;;
71610;SDS011;59459;51.172;6.682;2022-08-23T06:47:14;15.13;;;8.35;;
71610;SDS011;59459;51.172;6.682;2022-08-23T06:49:39;16.13;;;8.53;;
71610;SDS011;59459;51.172;6.682;2022-08-23T06:52:04;15.50;;;8.17;;
71610;SDS011;59459;51.172;6.682;2022-08-23T06:54:31;16.43;;;8.40;;
71610;SDS011;59459;51.172;6.682;2022-08-23T06:56:56;15.85;;;8.13;;
71610;SDS011;59459;51.172;6.682;2022-08-23T06:59:22;15.93;;;8.17;;
71610;SDS011;59459;51.172;6.682;2022-08-23T07:01:54;13.93;;;7.60;;
71610;SDS011;59459;51.172;6.682;2022-08-23T07:04:21;16.13;;;8.13;;
71610;SDS011;59459;51.172;6.682;2022-08-23T07:06:47;14.25;;;8.23;;
71610;SDS011;59459;51.172;6.682;2022-08-23T07:09:12;15.47;;;6.97;;
71610;SDS011;59459;51.172;6.682;2022-08-23T07:11:38;15.50;;;8.67;;
71610;SDS011;59459;51.172;6.682;2022-08-23T07:14:05;17.73;;;8.30;;
71610;SDS011;59459;51.172;6.682;2022-08-23T07:16:31;13.18;;;7.55;;
71610;SDS011;59459;51.172;6.682;2022-08-23T07:18:57;16.55;;;7.80;;
71610;SDS011;59459;51.172;6.682;2022-08-23T07:21:22;11.67;;;7.30;;
71610;SDS011;59459;51.172;6.682;2022-08-23T07:23:48;13.23;;;7.50;;
71610;SDS011;59459;51.172;6.682;2022-08-23T07:26:14;11.50;;;6.93;;
71610;SDS011;59459;51.172;6.682;2022-08-23T07:28:39;14.27;;;7.10;;
71610;SDS011;59459;51.172;6.682;2022-08-23T07:31:08;15.97;;;7.53;;
71610;SDS011;59459;51.172;6.682;2022-08-23T07:33:34;14.43;;;7.00;;
71610;SDS011;59459;51.172;6.682;2022-08-23T07:36:00;16.63;;;7.03;;
71610;SDS011;59459;51.172;6.682;2022-08-23T07:38:25;16.10;;;7.13;;
71610;SDS011;59459;51.172;6.682;2022-08-23T07:40:50;12.77;;;6.07;;
71610;SDS011;59459;51.172;6.682;2022-08-23T07:43:15;10.30;;;5.87;;
71610;SDS011;59459;51.172;6.682;2022-08-23T07:45:41;13.00;;;6.00;;
71610;SDS011;59459;51.172;6.682;2022-08-23T07:48:07;12.97;;;6.30;;
71610;SDS011;59459;51.172;6.682;2022-08-23T07:50:33;11.63;;;5.90;;
71610;SDS011;59459;51.172;6.682;2022-08-23T07:52:58;13.00;;;5.87;;
71610;SDS011;59459;51.172;6.682;2022-08-23T07:55:25;11.40;;;5.93;;
71610;SDS011;59459;51.172;6.682;2022-08-23T07:57:50;12.07;;;5.50;;
71610;SDS011;59459;51.172;6.682;2022-08-23T08:00:15;11.73;;;5.43;;
71610;SDS011;59459;51.172;6.682;2022-08-23T08:02:40;11.93;;;5.67;;
71610;SDS011;59459;51.172;6.682;2022-08-23T08:05:06;12.07;;;6.07;;
71610;SDS011;59459;51.172;6.682;2022-08-23T08:07:31;14.15;;;6.13;;
71610;SDS011;59459;51.172;6.682;2022-08-23T08:09:56;10.87;;;5.47;;
71610;SDS011;59459;51.172;6.682;2022-08-23T08:12:22;16.20;;;6.10;;
71610;SDS011;59459;51.172;6.682;2022-08-23T08:14:47;11.20;;;5.30;;
71610;SDS011;59459;51.172;6.682;2022-08-23T08:17:13;11.97;;;4.97;;
71610;SDS011;59459;51.172;6.682;2022-08-23T08:19:38;14.85;;;5.57;;
71610;SDS011;59459;51.172;6.682;2022-08-23T08:22:05;12.57;;;5.53;;
71610;SDS011;59459;51.172;6.682;2022-08-23T08:24:30;12.40;;;5.47;;
71610;SDS011;59459;51.172;6.682;2022-08-23T08:26:55;9.67;;;5.37;;
71610;SDS011;59459;51.172;6.682;2022-08-23T08:29:20;13.02;;;5.50;;
71610;SDS011;59459;51.172;6.682;2022-08-23T08:31:46;14.63;;;5.80;;
71610;SDS011;59459;51.172;6.682;2022-08-23T08:34:11;11.90;;;5.57;;
71610;SDS011;59459;51.172;6.682;2022-08-23T08:36:39;12.10;;;4.30;;
71610;SDS011;59459;51.172;6.682;2022-08-23T08:39:06;12.50;;;4.57;;
71610;SDS011;59459;51.172;6.682;2022-08-23T08:41:46;14.45;;;5.30;;
71610;SDS011;59459;51.172;6.682;2022-08-23T08:46:58;11.40;;;5.10;;
71610;SDS011;59459;51.172;6.682;2022-08-23T08:49:28;13.43;;;5.33;;
71610;SDS011;59459;51.172;6.682;2022-08-23T08:51:58;9.82;;;4.93;;
71610;SDS011;59459;51.172;6.682;2022-08-23T08:54:24;9.52;;;5.13;;
71610;SDS011;59459;51.172;6.682;2022-08-23T08:56:51;12.50;;;5.55;;
71610;SDS011;59459;51.172;6.682;2022-08-23T08:59:19;14.35;;;5.45;;
71610;SDS011;59459;51.172;6.682;2022-08-23T09:01:45;11.03;;;4.67;;
71610;SDS011;59459;51.172;6.682;2022-08-23T09:04:11;12.20;;;4.97;;
71610;SDS011;59459;51.172;6.682;2022-08-23T09:06:47;12.70;;;5.10;;
71610;SDS011;59459;51.172;6.682;2022-08-23T09:09:21;11.73;;;5.20;;
71610;SDS011;59459;51.172;6.682;2022-08-23T09:17:02;12.85;;;5.20;;
71610;SDS011;59459;51.172;6.682;2022-08-23T09:19:28;10.00;;;4.90;;
71610;SDS011;59459;51.172;6.682;2022-08-23T09:21:56;10.98;;;4.95;;
71610;SDS011;59459;51.172;6.682;2022-08-23T09:24:22;10.93;;;4.65;;
71610;SDS011;59459;51.172;6.682;2022-08-23T09:26:47;9.97;;;4.60;;
71610;SDS011;59459;51.172;6.682;2022-08-23T09:29:17;10.90;;;4.57;;
71610;SDS011;59459;51.172;6.682;2022-08-23T09:31:44;9.32;;;4.45;;
71610;SDS011;59459;51.172;6.682;2022-08-23T09:34:15;11.40;;;4.72;;
71610;SDS011;59459;51.172;6.682;2022-08-23T09:36:41;10.77;;;4.15;;
71610;SDS011;59459;51.172;6.682;2022-08-23T09:39:08;14.13;;;4.47;;
71610;SDS011;59459;51.172;6.682;2022-08-23T09:41:46;10.40;;;4.43;;
71610;SDS011;59459;51.172;6.682;2022-08-23T09:44:12;12.10;;;4.50;;
71610;SDS011;59459;51.172;6.682;2022-08-23T09:46:41;14.33;;;4.70;;
71610;SDS011;59459;51.172;6.682;2022-08-23T09:49:28;10.63;;;4.22;;
71610;SDS011;59459;51.172;6.682;2022-08-23T09:51:52;11.50;;;4.40;;
71610;SDS011;59459;51.172;6.682;2022-08-23T09:56:51;9.27;;;4.18;;
71610;SDS011;59459;51.172;6.682;2022-08-23T09:59:27;9.87;;;4.40;;
71610;SDS011;59459;51.172;6.682;2022-08-23T10:01:56;8.65;;;3.65;;
71610;SDS011;59459;51.172;6.682;2022-08-23T10:06:53;11.80;;;4.60;;
71610;SDS011;59459;51.172;6.682;2022-08-23T10:09:23;15.90;;;3.80;;
71610;SDS011;59459;51.172;6.682;2022-08-23T10:11:48;8.50;;;3.75;;
71610;SDS011;59459;51.172;6.682;2022-08-23T10:14:15;10.03;;;4.67;;
71610;SDS011;59459;51.172;6.682;2022-08-23T10:16:49;8.13;;;3.85;;
71610;SDS011;59459;51.172;6.682;2022-08-23T10:26:52;8.90;;;3.08;;
71610;SDS011;59459;51.172;6.682;2022-08-23T10:32:06;10.23;;;3.13;;
71610;SDS011;59459;51.172;6.682;2022-08-23T10:39:30;10.20;;;3.55;;
71610;SDS011;59459;51.172;6.682;2022-08-23T10:44:24;8.27;;;3.13;;
71610;SDS011;59459;51.172;6.682;2022-08-23T10:49:37;8.73;;;3.10;;
71610;SDS011;59459;51.172;6.682;2022-08-23T10:52:04;8.73;;;3.47;;
71610;SDS011;59459;51.172;6.682;2022-08-23T10:54:34;13.03;;;4.07;;
71610;SDS011;59459;51.172;6.682;2022-08-23T10:57:09;9.63;;;3.50;;
71610;SDS011;59459;51.172;6.682;2022-08-23T10:59:36;8.60;;;3.75;;
71610;SDS011;59459;51.172;6.682;2022-08-23T11:02:13;6.80;;;3.33;;
71610;SDS011;59459;51.172;6.682;2022-08-23T11:09:49;9.50;;;3.88;;
71610;SDS011;59459;51.172;6.682;2022-08-23T11:24:50;8.47;;;3.67;;
71610;SDS011;59459;51.172;6.682;2022-08-23T11:32:48;7.22;;;3.65;;
71610;SDS011;59459;51.172;6.682;2022-08-23T11:35:30;8.43;;;4.10;;
71610;SDS011;59459;51.172;6.682;2022-08-23T11:37:58;8.50;;;4.03;;
71610;SDS011;59459;51.172;6.682;2022-08-23T11:43:17;11.73;;;3.58;;
71610;SDS011;59459;51.172;6.682;2022-08-23T11:45:46;7.75;;;3.67;;
71610;SDS011;59459;51.172;6.682;2022-08-23T11:53:08;11.60;;;4.17;;
71610;SDS011;59459;51.172;6.682;2022-08-23T11:58:22;8.88;;;3.10;;
71610;SDS011;59459;51.172;6.682;2022-08-23T12:00:52;7.97;;;3.20;;
71610;SDS011;59459;51.172;6.682;2022-08-23T12:03:28;6.10;;;3.92;;
71610;SDS011;59459;51.172;6.682;2022-08-23T12:06:09;9.68;;;4.00;;
71610;SDS011;59459;51.172;6.682;2022-08-23T12:11:19;6.95;;;3.53;;
71610;SDS011;59459;51.172;6.682;2022-08-23T12:21:04;7.33;;;3.03;;
71610;SDS011;59459;51.172;6.682;2022-08-23T12:23:42;7.22;;;2.63;;
71610;SDS011;59459;51.172;6.682;2022-08-23T12:26:10;8.18;;;2.75;;
71610;SDS011;59459;51.172;6.682;2022-08-23T12:28:42;7.68;;;3.10;;
71610;SDS011;59459;51.172;6.682;2022-08-23T12:43:57;7.07;;;2.30;;
71610;SDS011;59459;51.172;6.682;2022-08-23T12:46:56;7.03;;;2.28;;
71610;SDS011;59459;51.172;6.682;2022-08-23T12:51:49;7.38;;;2.72;;
71610;SDS011;59459;51.172;6.682;2022-08-23T12:54:16;5.82;;;2.70;;
71610;SDS011;59459;51.172;6.682;2022-08-23T12:56:46;7.07;;;2.20;;
71610;SDS011;59459;51.172;6.682;2022-08-23T12:59:32;7.03;;;2.63;;
71610;SDS011;59459;51.172;6.682;2022-08-23T13:01:57;7.03;;;2.20;;
71610;SDS011;59459;51.172;6.682;2022-08-23T13:04:23;5.15;;;2.38;;
71610;SDS011;59459;51.172;6.682;2022-08-23T13:06:58;6.90;;;2.40;;
71610;SDS011;59459;51.172;6.682;2022-08-23T13:11:50;6.67;;;2.10;;
71610;SDS011;59459;51.172;6.682;2022-08-23T13:16:53;6.60;;;2.60;;
71610;SDS011;59459;51.172;6.682;2022-08-23T13:19:23;5.20;;;2.40;;
71610;SDS011;59459;51.172;6.682;2022-08-23T13:24:34;5.65;;;2.10;;
71610;SDS011;59459;51.172;6.682;2022-08-23T13:27:15;5.73;;;2.30;;
71610;SDS011;59459;51.172;6.682;2022-08-23T13:29:54;5.38;;;2.22;;
71610;SDS011;59459;51.172;6.682;2022-08-23T13:32:39;7.03;;;2.55;;
71610;SDS011;59459;51.172;6.682;2022-08-23T13:37:48;5.18;;;2.10;;
71610;SDS011;59459;51.172;6.682;2022-08-23T13:40:16;8.17;;;2.10;;
71610;SDS011;59459;51.172;6.682;2022-08-23T13:42:45;4.70;;;2.30;;
71610;SDS011;59459;51.172;6.682;2022-08-23T13:45:26;6.05;;;2.65;;
71610;SDS011;59459;51.172;6.682;2022-08-23T13:47:56;6.53;;;2.53;;
71610;SDS011;59459;51.172;6.682;2022-08-23T13:50:24;5.43;;;2.40;;
71610;SDS011;59459;51.172;6.682;2022-08-23T13:52:49;7.97;;;2.10;;
71610;SDS011;59459;51.172;6.682;2022-08-23T13:55:15;4.83;;;2.30;;
71610;SDS011;59459;51.172;6.682;2022-08-23T13:57:40;6.53;;;2.07;;
71610;SDS011;59459;51.172;6.682;2022-08-23T14:00:06;6.10;;;2.30;;
71610;SDS011;59459;51.172;6.682;2022-08-23T14:02:35;6.93;;;2.30;;
71610;SDS011;59459;51.172;6.682;2022-08-23T14:05:01;8.57;;;2.20;;
71610;SDS011;59459;51.172;6.682;2022-08-23T14:07:26;5.20;;;1.80;;
71610;SDS011;59459;51.172;6.682;2022-08-23T14:09:52;4.20;;;2.20;;
71610;SDS011;59459;51.172;6.682;2022-08-23T14:12:18;6.23;;;2.17;;
71610;SDS011;59459;51.172;6.682;2022-08-23T14:14:44;5.53;;;2.63;;
71610;SDS011;59459;51.172;6.682;2022-08-23T14:17:11;8.03;;;2.20;;
71610;SDS011;59459;51.172;6.682;2022-08-23T14:19:36;4.37;;;2.13;;
71610;SDS011;59459;51.172;6.682;2022-08-23T14:22:02;6.17;;;2.40;;
71610;SDS011;59459;51.172;6.682;2022-08-23T14:24:28;7.85;;;2.13;;
71610;SDS011;59459;51.172;6.682;2022-08-23T14:26:53;4.67;;;2.27;;
71610;SDS011;59459;51.172;6.682;2022-08-23T14:29:20;9.40;;;2.58;;
71610;SDS011;59459;51.172;6.682;2022-08-23T14:31:45;5.45;;;2.25;;
71610;SDS011;59459;51.172;6.682;2022-08-23T14:34:11;6.50;;;1.77;;
71610;SDS011;59459;51.172;6.682;2022-08-23T14:36:36;8.03;;;2.23;;
71610;SDS011;59459;51.172;6.682;2022-08-23T14:39:01;6.33;;;2.00;;
71610;SDS011;59459;51.172;6.682;2022-08-23T14:41:27;6.20;;;2.17;;
71610;SDS011;59459;51.172;6.682;2022-08-23T14:43:53;4.30;;;2.03;;
71610;SDS011;59459;51.172;6.682;2022-08-23T14:46:19;8.40;;;2.03;;
71610;SDS011;59459;51.172;6.682;2022-08-23T14:48:44;4.95;;;1.85;;
71610;SDS011;59459;51.172;6.682;2022-08-23T14:51:17;6.80;;;2.53;;
71610;SDS011;59459;51.172;6.682;2022-08-23T14:53:47;7.28;;;2.58;;
71610;SDS011;59459;51.172;6.682;2022-08-23T14:56:12;5.03;;;2.13;;
71610;SDS011;59459;51.172;6.682;2022-08-23T14:58:37;5.63;;;2.03;;
71610;SDS011;59459;51.172;6.682;2022-08-23T15:01:04;5.20;;;2.10;;
71610;SDS011;59459;51.172;6.682;2022-08-23T15:03:29;5.37;;;2.10;;
71610;SDS011;59459;51.172;6.682;2022-08-23T15:05:55;5.63;;;1.63;;
71610;SDS011;59459;51.172;6.682;2022-08-23T15:08:20;4.78;;;2.00;;
71610;SDS011;59459;51.172;6.682;2022-08-23T15:10:47;7.23;;;2.10;;
71610;SDS011;59459;51.172;6.682;2022-08-23T15:13:18;6.13;;;1.88;;
71610;SDS011;59459;51.172;6.682;2022-08-23T15:15:43;5.07;;;1.90;;
71610;SDS011;59459;51.172;6.682;2022-08-23T15:18:09;5.80;;;2.20;;
71610;SDS011;59459;51.172;6.682;2022-08-23T15:20:35;4.60;;;1.87;;
71610;SDS011;59459;51.172;6.682;2022-08-23T15:23:01;5.22;;;1.70;;
71610;SDS011;59459;51.172;6.682;2022-08-23T15:25:28;4.20;;;1.98;;
71610;SDS011;59459;51.172;6.682;2022-08-23T15:27:54;4.67;;;1.53;;
71610;SDS011;59459;51.172;6.682;2022-08-23T15:30:19;6.60;;;1.83;;
71610;SDS011;59459;51.172;6.682;2022-08-23T15:32:45;8.18;;;2.33;;
71610;SDS011;59459;51.172;6.682;2022-08-23T15:35:11;6.73;;;2.17;;
71610;SDS011;59459;51.172;6.682;2022-08-23T15:37:37;3.90;;;1.97;;
71610;SDS011;59459;51.172;6.682;2022-08-23T15:40:03;4.63;;;1.60;;
71610;SDS011;59459;51.172;6.682;2022-08-23T15:42:29;4.43;;;1.67;;
71610;SDS011;59459;51.172;6.682;2022-08-23T15:44:54;5.37;;;1.80;;
71610;SDS011;59459;51.172;6.682;2022-08-23T15:47:24;6.13;;;2.10;;
71610;SDS011;59459;51.172;6.682;2022-08-23T15:49:53;8.75;;;1.70;;
71610;SDS011;59459;51.172;6.682;2022-08-23T15:52:18;6.13;;;1.88;;
71610;SDS011;59459;51.172;6.682;2022-08-23T15:54:44;3.97;;;1.57;;
71610;SDS011;59459;51.172;6.682;2022-08-23T15:57:13;5.17;;;1.80;;
71610;SDS011;59459;51.172;6.682;2022-08-23T15:59:39;6.32;;;1.88;;
71610;SDS011;59459;51.172;6.682;2022-08-23T16:02:05;5.03;;;1.80;;
71610;SDS011;59459;51.172;6.682;2022-08-23T16:04:33;9.23;;;2.08;;
71610;SDS011;59459;51.172;6.682;2022-08-23T16:06:58;5.40;;;2.53;;
71610;SDS011;59459;51.172;6.682;2022-08-23T16:09:23;3.70;;;1.77;;
71610;SDS011;59459;51.172;6.682;2022-08-23T16:11:49;5.80;;;1.50;;
71610;SDS011;59459;51.172;6.682;2022-08-23T16:14:14;4.50;;;1.60;;
71610;SDS011;59459;51.172;6.682;2022-08-23T16:16:40;3.27;;;1.67;;
71610;SDS011;59459;51.172;6.682;2022-08-23T16:19:06;4.85;;;1.60;;
71610;SDS011;59459;51.172;6.682;2022-08-23T16:21:31;5.03;;;1.52;;
71610;SDS011;59459;51.172;6.682;2022-08-23T16:23:57;4.97;;;1.70;;
71610;SDS011;59459;51.172;6.682;2022-08-23T16:26:27;4.97;;;1.90;;
71610;SDS011;59459;51.172;6.682;2022-08-23T16:28:53;5.43;;;1.70;;